Time;durP1;ratioP1;P1;durP2;ratioP2;P2;SDS_P1;SDS_P2;PMS_P1;PMS_P2;Temp;Humidity;BMP_temperature;BMP_pressure;BME280_temperature;BME280_humidity;BME280_pressure;Samples;Min_cycle;Max_cycle;Signal;HPM_P1;HPM_P2
2023/06/12 00:00:39;;;;;;;;;;;24.20;41.70;;;;;;5074231;28;19913;-29
2023/06/12 00:03:05;;;;;;;;;;;24.20;41.70;;;;;;5073291;28;19971;-34
2023/06/12 00:05:30;;;;;;;;;;;24.10;41.80;;;;;;5071936;28;19924;-32
2023/06/12 00:07:57;;;;;;;;;;;24.10;41.80;;;;;;5073369;28;19916;-33
2023/06/12 00:10:23;;;;;;;;;;;24.00;41.80;;;;;;5073370;28;19948;-31
2023/06/12 00:12:48;;;;;;;;;;;24.00;41.80;;;;;;5073241;28;19955;-35
2023/06/12 00:15:14;;;;;;;;;;;24.00;41.90;;;;;;5073263;28;19912;-33
2023/06/12 00:17:40;;;;;;;;;;;24.00;41.90;;;;;;5073574;28;19977;-34
2023/06/12 00:20:07;;;;;;;;;;;23.90;41.90;;;;;;5073212;28;19958;-34
2023/06/12 00:22:36;;;;;;;;;;;23.80;41.90;;;;;;5073133;28;19916;-34
2023/06/12 00:25:01;;;;;;;;;;;23.80;42.00;;;;;;5073097;28;19916;-31
2023/06/12 00:27:27;;;;;;;;;;;23.80;42.00;;;;;;5072552;28;20284;-32
2023/06/12 00:29:52;;;;;;;;;;;23.80;42.10;;;;;;5072558;28;19969;-31
2023/06/12 00:32:18;;;;;;;;;;;23.80;42.10;;;;;;5073099;28;20364;-35
2023/06/12 00:34:43;;;;;;;;;;;23.70;42.20;;;;;;5072847;28;19919;-36
2023/06/12 00:37:08;;;;;;;;;;;23.70;42.20;;;;;;5072851;28;20016;-34
2023/06/12 00:39:34;;;;;;;;;;;23.60;42.90;;;;;;5072811;28;19912;-34
2023/06/12 00:42:00;;;;;;;;;;;23.60;42.20;;;;;;5072930;28;19955;-34
2023/06/12 00:44:25;;;;;;;;;;;23.60;42.30;;;;;;5072748;28;19913;-36
2023/06/12 00:46:51;;;;;;;;;;;23.60;42.40;;;;;;5072702;28;19916;-33
2023/06/12 00:49:16;;;;;;;;;;;23.50;42.30;;;;;;5072685;28;19912;-35
2023/06/12 00:51:42;;;;;;;;;;;23.50;42.40;;;;;;5072566;28;19913;-30
2023/06/12 00:54:07;;;;;;;;;;;23.50;42.50;;;;;;5072577;28;20437;-32
2023/06/12 00:56:33;;;;;;;;;;;23.40;42.50;;;;;;5072868;28;19912;-37
2023/06/12 00:58:59;;;;;;;;;;;23.40;42.50;;;;;;5071227;28;20031;-35
2023/06/12 01:01:26;;;;;;;;;;;23.40;42.60;;;;;;5072520;28;19913;-32
2023/06/12 01:03:56;;;;;;;;;;;23.40;42.60;;;;;;5072228;28;19927;-37
2023/06/12 01:06:29;;;;;;;;;;;23.30;42.70;;;;;;5072298;28;19974;-35
2023/06/12 01:09:09;;;;;;;;;;;23.30;42.70;;;;;;5072413;28;19912;-34
2023/06/12 01:11:36;;;;;;;;;;;23.20;42.70;;;;;;5072334;28;19981;-35
2023/06/12 01:14:02;;;;;;;;;;;23.20;42.80;;;;;;5070890;28;19913;-32
2023/06/12 01:16:27;;;;;;;;;;;23.20;42.90;;;;;;5072596;28;19958;-31
2023/06/12 01:18:52;;;;;;;;;;;23.10;42.90;;;;;;5072251;28;19912;-34
2023/06/12 01:21:22;;;;;;;;;;;23.10;43.00;;;;;;5072260;28;19913;-29
2023/06/12 01:24:00;;;;;;;;;;;23.10;43.00;;;;;;5072125;28;19920;-34
2023/06/12 01:26:44;;;;;;;;;;;23.00;43.00;;;;;;5072110;28;20289;-34
2023/06/12 01:29:21;;;;;;;;;;;23.00;43.10;;;;;;5072068;28;19959;-33
2023/06/12 01:31:56;;;;;;;;;;;23.00;43.20;;;;;;5072171;28;19920;-38
2023/06/12 01:34:27;;;;;;;;;;;22.90;43.30;;;;;;5072225;28;19939;-34
2023/06/12 01:37:05;;;;;;;;;;;22.90;43.40;;;;;;5072163;28;19923;-33
2023/06/12 01:39:36;;;;;;;;;;;22.80;43.40;;;;;;5073670;28;20360;-34
2023/06/12 01:42:02;;;;;;;;;;;22.80;43.50;;;;;;5076101;28;19920;-33
2023/06/12 01:44:28;;;;;;;;;;;22.70;43.50;;;;;;5076076;28;20007;-33
2023/06/12 01:46:53;;;;;;;;;;;22.70;43.60;;;;;;5076089;28;19964;-33
2023/06/12 01:49:19;;;;;;;;;;;22.60;43.60;;;;;;5076096;28;19920;-34
2023/06/12 01:51:44;;;;;;;;;;;22.60;43.70;;;;;;5076005;28;19913;-30
2023/06/12 01:54:10;;;;;;;;;;;22.60;43.80;;;;;;5076031;28;19961;-46
2023/06/12 01:56:36;;;;;;;;;;;22.50;43.80;;;;;;5075898;28;19944;-30
2023/06/12 01:59:01;;;;;;;;;;;22.50;43.90;;;;;;5075952;28;20007;-34
2023/06/12 02:01:29;;;;;;;;;;;22.50;43.90;;;;;;5074835;28;20005;-34
2023/06/12 02:03:56;;;;;;;;;;;22.40;43.90;;;;;;5075545;28;19917;-35
2023/06/12 02:06:21;;;;;;;;;;;22.40;44.00;;;;;;5075618;28;19924;-36
2023/06/12 02:08:47;;;;;;;;;;;22.40;44.00;;;;;;5075688;28;19919;-34
2023/06/12 02:11:13;;;;;;;;;;;22.30;44.00;;;;;;5075790;28;20041;-33
2023/06/12 02:13:39;;;;;;;;;;;22.30;44.10;;;;;;5075636;28;19919;-35
2023/06/12 02:16:06;;;;;;;;;;;22.20;44.10;;;;;;5075556;28;20418;-34
2023/06/12 02:18:32;;;;;;;;;;;22.20;44.20;;;;;;5075602;28;19923;-30
2023/06/12 02:20:57;;;;;;;;;;;22.10;44.20;;;;;;5074143;28;19912;-35
2023/06/12 02:23:23;;;;;;;;;;;22.10;44.30;;;;;;5075401;28;20402;-33
2023/06/12 02:25:48;;;;;;;;;;;22.10;45.00;;;;;;5075289;28;20368;-32
2023/06/12 02:28:14;;;;;;;;;;;22.10;44.40;;;;;;5075573;28;19913;-31
2023/06/12 02:30:39;;;;;;;;;;;22.00;44.50;;;;;;5075225;28;19913;-33
2023/06/12 02:33:09;;;;;;;;;;;22.00;44.50;;;;;;5075167;28;19989;-31
2023/06/12 02:35:38;;;;;;;;;;;21.90;44.60;;;;;;5075193;28;20279;-38
2023/06/12 02:38:03;;;;;;;;;;;21.90;44.70;;;;;;5075118;28;19919;-30
2023/06/12 02:40:29;;;;;;;;;;;21.90;44.70;;;;;;5075380;28;20006;-32
2023/06/12 02:42:54;;;;;;;;;;;21.90;44.70;;;;;;5075300;28;19917;-32
2023/06/12 02:45:21;;;;;;;;;;;21.80;44.70;;;;;;5075287;28;20302;-32
2023/06/12 02:47:46;;;;;;;;;;;21.80;44.70;;;;;;5074974;28;20277;-36
2023/06/12 02:50:12;;;;;;;;;;;21.80;44.80;;;;;;5074727;28;19939;-33
2023/06/12 02:52:40;;;;;;;;;;;21.70;44.70;;;;;;5074287;28;20391;-33
2023/06/12 02:55:06;;;;;;;;;;;21.70;44.80;;;;;;5074870;28;19931;-31
2023/06/12 02:57:32;;;;;;;;;;;21.70;44.80;;;;;;5075101;28;19923;-32
2023/06/12 02:59:58;;;;;;;;;;;21.70;45.50;;;;;;5074819;28;20007;-29
2023/06/12 03:02:23;;;;;;;;;;;21.70;44.90;;;;;;5074633;28;19916;-32
2023/06/12 03:04:49;;;;;;;;;;;21.70;44.90;;;;;;5074526;28;19921;-31
2023/06/12 03:07:16;;;;;;;;;;;21.70;44.90;;;;;;5074578;28;20300;-30
2023/06/12 03:09:42;;;;;;;;;;;21.60;44.90;;;;;;5074542;28;20034;-29
2023/06/12 03:12:08;;;;;;;;;;;21.60;44.90;;;;;;5074479;28;19954;-30
2023/06/12 03:14:34;;;;;;;;;;;21.60;44.90;;;;;;5074502;28;19913;-28
2023/06/12 03:16:59;;;;;;;;;;;21.60;45.00;;;;;;5074407;28;20363;-32
2023/06/12 03:19:25;;;;;;;;;;;21.60;45.00;;;;;;5074399;28;19967;-30
2023/06/12 03:21:50;;;;;;;;;;;21.60;45.00;;;;;;5074297;28;19913;-34
2023/06/12 03:24:16;;;;;;;;;;;21.60;45.00;;;;;;5074182;28;20316;-36
2023/06/12 03:26:41;;;;;;;;;;;21.60;45.00;;;;;;5074310;28;19921;-29
2023/06/12 03:29:07;;;;;;;;;;;21.50;44.90;;;;;;5074602;28;19920;-33
2023/06/12 03:31:33;;;;;;;;;;;21.50;45.00;;;;;;5074150;28;20002;-31
2023/06/12 03:33:58;;;;;;;;;;;21.50;44.90;;;;;;5074146;28;19916;-31
2023/06/12 03:36:28;;;;;;;;;;;21.50;45.00;;;;;;5074084;28;19914;-30
2023/06/12 03:38:54;;;;;;;;;;;21.60;45.00;;;;;;5074092;28;20476;-30
2023/06/12 03:41:20;;;;;;;;;;;21.50;45.10;;;;;;5073988;28;19912;-35
2023/06/12 03:43:46;;;;;;;;;;;21.50;45.10;;;;;;5073953;28;19924;-34
2023/06/12 03:46:11;;;;;;;;;;;21.40;45.10;;;;;;5073826;28;19916;-32
2023/06/12 03:48:37;;;;;;;;;;;21.50;45.20;;;;;;5073814;28;19938;-35
2023/06/12 03:51:02;;;;;;;;;;;21.40;45.10;;;;;;5073771;28;19913;-33
2023/06/12 03:53:28;;;;;;;;;;;21.40;45.20;;;;;;5073750;28;19920;-29
2023/06/12 03:55:53;;;;;;;;;;;21.40;45.20;;;;;;5073681;28;20432;-31
2023/06/12 03:58:19;;;;;;;;;;;21.40;45.20;;;;;;5073917;28;19919;-34
2023/06/12 04:00:47;;;;;;;;;;;21.40;45.30;;;;;;5072356;28;20388;-34
2023/06/12 04:03:21;;;;;;;;;;;21.40;45.30;;;;;;5073273;28;19917;-34
2023/06/12 04:05:49;;;;;;;;;;;21.40;45.30;;;;;;5073415;28;19977;-34
2023/06/12 04:08:14;;;;;;;;;;;21.40;45.40;;;;;;5073443;28;19919;-28
2023/06/12 04:10:40;;;;;;;;;;;21.40;45.40;;;;;;5073744;28;19912;-33
2023/06/12 04:13:06;;;;;;;;;;;21.40;45.50;;;;;;5073361;28;19912;-35
2023/06/12 04:15:31;;;;;;;;;;;21.40;45.50;;;;;;5073256;28;19916;-35
2023/06/12 04:17:58;;;;;;;;;;;21.40;45.50;;;;;;5073263;28;20422;-36
2023/06/12 04:20:26;;;;;;;;;;;21.40;45.50;;;;;;5073196;28;19919;-31
2023/06/12 04:22:52;;;;;;;;;;;21.40;45.60;;;;;;5073095;28;19955;-30
2023/06/12 04:25:18;;;;;;;;;;;21.40;45.70;;;;;;5073147;28;19920;-30
2023/06/12 04:27:44;;;;;;;;;;;21.40;46.30;;;;;;5073312;28;19918;-31
2023/06/12 04:30:10;;;;;;;;;;;21.50;45.70;;;;;;5072958;28;19935;-31
2023/06/12 04:32:37;;;;;;;;;;;21.40;45.60;;;;;;5071602;28;20001;-31
2023/06/12 04:35:03;;;;;;;;;;;21.50;45.70;;;;;;5072973;28;19912;-35
2023/06/12 04:37:28;;;;;;;;;;;21.50;45.60;;;;;;5072842;28;20147;-41
2023/06/12 04:39:54;;;;;;;;;;;21.60;45.60;;;;;;5072917;28;19916;-36
2023/06/12 04:42:20;;;;;;;;;;;21.60;45.60;;;;;;5072753;28;19924;-30
2023/06/12 04:44:48;;;;;;;;;;;21.60;45.60;;;;;;5072778;28;19912;-34
2023/06/12 04:47:15;;;;;;;;;;;21.60;45.50;;;;;;5072722;28;19913;-30
2023/06/12 04:49:41;;;;;;;;;;;21.70;45.60;;;;;;5071382;28;20006;-33
2023/06/12 04:52:07;;;;;;;;;;;21.70;45.50;;;;;;5072574;28;19919;-35
2023/06/12 04:54:35;;;;;;;;;;;21.70;45.60;;;;;;5072699;28;19912;-32
2023/06/12 04:57:02;;;;;;;;;;;21.70;45.60;;;;;;5072636;28;20043;-30
2023/06/12 04:59:28;;;;;;;;;;;21.80;45.60;;;;;;5071273;28;19913;-33
2023/06/12 05:01:55;;;;;;;;;;;21.80;45.60;;;;;;5072556;28;20394;-33
2023/06/12 05:04:20;;;;;;;;;;;21.80;45.70;;;;;;5072647;28;19916;-34
2023/06/12 05:06:46;;;;;;;;;;;21.80;45.70;;;;;;5072438;28;19919;-34
2023/06/12 05:09:12;;;;;;;;;;;21.90;45.70;;;;;;5072398;28;19908;-29
2023/06/12 05:11:38;;;;;;;;;;;21.90;45.70;;;;;;5072325;28;19909;-34
2023/06/12 05:14:03;;;;;;;;;;;21.90;45.60;;;;;;5072020;28;19999;-30
2023/06/12 05:16:29;;;;;;;;;;;22.00;45.70;;;;;;5072299;28;19916;-32
2023/06/12 05:18:54;;;;;;;;;;;22.00;45.70;;;;;;5072271;28;19908;-32
2023/06/12 05:21:20;;;;;;;;;;;22.00;45.70;;;;;;5072213;28;20345;-35
2023/06/12 05:23:45;;;;;;;;;;;22.10;45.70;;;;;;5072053;28;19939;-35
2023/06/12 05:26:11;;;;;;;;;;;22.10;45.70;;;;;;5072221;28;19978;-29
2023/06/12 05:28:36;;;;;;;;;;;22.10;45.70;;;;;;5072217;28;19909;-35
2023/06/12 05:31:03;;;;;;;;;;;22.20;45.70;;;;;;5072044;28;19908;-32
2023/06/12 05:33:29;;;;;;;;;;;22.20;45.70;;;;;;5072179;28;19909;-32
2023/06/12 05:35:55;;;;;;;;;;;22.20;45.60;;;;;;5072159;28;19908;-35
2023/06/12 05:38:20;;;;;;;;;;;22.30;45.60;;;;;;5072092;28;19915;-33
2023/06/12 05:40:46;;;;;;;;;;;22.30;45.60;;;;;;5072022;28;19909;-32
2023/06/12 05:43:11;;;;;;;;;;;22.30;45.50;;;;;;5071842;28;19916;-33
2023/06/12 05:45:37;;;;;;;;;;;22.30;45.40;;;;;;5071995;28;19910;-32
2023/06/12 05:48:02;;;;;;;;;;;22.40;45.40;;;;;;5072036;28;20069;-32
2023/06/12 05:50:28;;;;;;;;;;;22.40;45.40;;;;;;5071978;28;19943;-32
2023/06/12 05:52:53;;;;;;;;;;;22.50;45.40;;;;;;5071973;28;20007;-35
2023/06/12 05:55:19;;;;;;;;;;;22.50;45.30;;;;;;5071830;28;19908;-34
2023/06/12 05:57:44;;;;;;;;;;;22.60;45.30;;;;;;5071873;28;20003;-32
2023/06/12 06:00:12;;;;;;;;;;;22.60;45.20;;;;;;5071867;28;19951;-32
2023/06/12 06:02:38;;;;;;;;;;;22.70;45.20;;;;;;5071522;28;19981;-35
2023/06/12 06:05:05;;;;;;;;;;;22.70;45.20;;;;;;5071672;28;19954;-34
2023/06/12 06:07:33;;;;;;;;;;;22.80;45.10;;;;;;5071712;28;19908;-35
2023/06/12 06:09:58;;;;;;;;;;;22.80;45.00;;;;;;5071825;28;20329;-30
2023/06/12 06:12:24;;;;;;;;;;;22.90;45.00;;;;;;5071644;28;20372;-36
2023/06/12 06:14:49;;;;;;;;;;;22.90;45.00;;;;;;5071974;28;19999;-34
2023/06/12 06:17:16;;;;;;;;;;;23.00;45.00;;;;;;5071749;28;19908;-33
2023/06/12 06:19:42;;;;;;;;;;;23.00;45.00;;;;;;5071687;28;19948;-33
2023/06/12 06:22:08;;;;;;;;;;;23.00;45.00;;;;;;5071501;28;19916;-38
2023/06/12 06:24:33;;;;;;;;;;;23.00;44.90;;;;;;5071684;28;19909;-36
2023/06/12 06:26:59;;;;;;;;;;;23.00;44.90;;;;;;5074944;28;19931;-34
2023/06/12 06:29:24;;;;;;;;;;;23.10;44.90;;;;;;5075308;28;19908;-31
2023/06/12 06:31:50;;;;;;;;;;;23.10;44.90;;;;;;5075524;28;19967;-30
2023/06/12 06:34:15;;;;;;;;;;;23.10;45.60;;;;;;5075214;28;20435;-33
2023/06/12 06:36:41;;;;;;;;;;;23.10;44.90;;;;;;5075157;28;19920;-30
2023/06/12 06:39:07;;;;;;;;;;;23.10;44.90;;;;;;5075408;28;20336;-32
2023/06/12 06:41:32;;;;;;;;;;;23.10;44.90;;;;;;5075330;28;19909;-31
2023/06/12 06:43:58;;;;;;;;;;;23.10;45.00;;;;;;5075175;28;19912;-32
2023/06/12 06:46:23;;;;;;;;;;;23.20;45.00;;;;;;5075089;28;19959;-34
2023/06/12 06:48:49;;;;;;;;;;;23.20;45.00;;;;;;5075147;28;19909;-33
2023/06/12 06:51:14;;;;;;;;;;;23.20;45.00;;;;;;5075119;28;20364;-28
2023/06/12 06:53:40;;;;;;;;;;;23.20;44.90;;;;;;5074872;28;19999;-32
2023/06/12 06:56:05;;;;;;;;;;;23.30;45.00;;;;;;5074787;28;19909;-33
2023/06/12 06:58:31;;;;;;;;;;;23.30;44.90;;;;;;5074677;28;19999;-33
2023/06/12 07:00:57;;;;;;;;;;;23.40;44.90;;;;;;5074673;28;19908;-32
2023/06/12 07:03:22;;;;;;;;;;;23.40;44.90;;;;;;5074530;28;19935;-36
2023/06/12 07:05:47;;;;;;;;;;;23.50;44.90;;;;;;5074627;28;20003;-34
2023/06/12 07:08:13;;;;;;;;;;;23.50;44.90;;;;;;5074538;28;20429;-34
2023/06/12 07:10:38;;;;;;;;;;;23.50;44.90;;;;;;5074530;28;19952;-46
2023/06/12 07:13:04;;;;;;;;;;;23.50;44.90;;;;;;5074450;28;19908;-46
2023/06/12 07:15:30;;;;;;;;;;;23.60;44.90;;;;;;5074685;28;20069;-41
2023/06/12 07:17:55;;;;;;;;;;;23.60;44.80;;;;;;5074435;28;19908;-45
2023/06/12 07:20:21;;;;;;;;;;;23.80;44.90;;;;;;5074736;28;19920;-42
2023/06/12 07:22:46;;;;;;;;;;;23.80;44.80;;;;;;5074409;28;19912;-45
2023/06/12 07:25:12;;;;;;;;;;;23.80;44.70;;;;;;5074826;28;19908;-45
2023/06/12 07:27:37;;;;;;;;;;;23.90;44.70;;;;;;5074572;28;19908;-43
2023/06/12 07:30:05;;;;;;;;;;;24.00;44.70;;;;;;5074566;28;20386;-43
2023/06/12 07:32:31;;;;;;;;;;;24.00;44.70;;;;;;5074419;28;19999;-43
2023/06/12 07:34:56;;;;;;;;;;;24.00;44.70;;;;;;5074111;28;20404;-41
2023/06/12 07:37:22;;;;;;;;;;;24.10;44.70;;;;;;5073523;28;19915;-41
2023/06/12 07:39:48;;;;;;;;;;;24.10;44.70;;;;;;5072709;28;19909;-45
2023/06/12 07:42:13;;;;;;;;;;;24.10;44.70;;;;;;5073824;28;20345;-43
2023/06/12 07:44:40;;;;;;;;;;;24.20;44.80;;;;;;5074329;28;19909;-42
2023/06/12 07:47:06;;;;;;;;;;;24.20;44.80;;;;;;5073958;28;20375;-46
2023/06/12 07:49:32;;;;;;;;;;;24.20;44.80;;;;;;5074421;28;19913;-46
2023/06/12 07:51:58;;;;;;;;;;;24.30;44.80;;;;;;5073889;28;19909;-42
2023/06/12 07:54:23;;;;;;;;;;;24.30;44.90;;;;;;5073782;28;20336;-46
2023/06/12 07:56:51;;;;;;;;;;;24.30;44.80;;;;;;5073981;28;19916;-47
2023/06/12 07:59:17;;;;;;;;;;;24.50;44.90;;;;;;5073952;28;19979;-45
2023/06/12 08:01:43;;;;;;;;;;;24.50;44.90;;;;;;5073984;28;19916;-44
2023/06/12 08:04:11;;;;;;;;;;;24.50;44.70;;;;;;5073852;28;19916;-42
2023/06/12 08:06:37;;;;;;;;;;;24.60;44.90;;;;;;5073547;28;19928;-32
2023/06/12 08:09:03;;;;;;;;;;;24.70;44.80;;;;;;5073657;28;19915;-39
2023/06/12 08:11:28;;;;;;;;;;;24.70;44.80;;;;;;5073349;28;19909;-39
2023/06/12 08:13:54;;;;;;;;;;;24.80;44.70;;;;;;5073326;28;19944;-39
2023/06/12 08:16:20;;;;;;;;;;;24.80;44.70;;;;;;5073271;28;19909;-39
2023/06/12 08:18:46;;;;;;;;;;;24.90;44.80;;;;;;5073565;28;19908;-35
2023/06/12 08:21:12;;;;;;;;;;;24.90;44.70;;;;;;5073244;28;19915;-40
2023/06/12 08:23:37;;;;;;;;;;;25.00;44.70;;;;;;5073308;28;19977;-38
2023/06/12 08:26:05;;;;;;;;;;;25.00;44.60;;;;;;5073021;28;19916;-40
2023/06/12 08:28:35;;;;;;;;;;;25.10;44.60;;;;;;5073412;28;20374;-38
2023/06/12 08:31:01;;;;;;;;;;;25.10;44.60;;;;;;5073228;28;19916;-40
2023/06/12 08:33:27;;;;;;;;;;;25.20;44.50;;;;;;5072903;28;20410;-37
2023/06/12 08:35:53;;;;;;;;;;;25.30;44.50;;;;;;5073185;28;20223;-44
2023/06/12 08:38:18;;;;;;;;;;;25.30;44.50;;;;;;5072894;28;20011;-35
2023/06/12 08:40:45;;;;;;;;;;;25.40;44.40;;;;;;5072832;28;19913;-37
2023/06/12 08:43:11;;;;;;;;;;;25.50;44.30;;;;;;5072858;28;19917;-33
2023/06/12 08:45:37;;;;;;;;;;;25.60;44.10;;;;;;5073087;28;19970;-34
2023/06/12 08:48:04;;;;;;;;;;;25.70;44.10;;;;;;5072678;28;19909;-35
2023/06/12 08:50:30;;;;;;;;;;;25.80;44.10;;;;;;5072040;28;20411;-35
2023/06/12 08:52:56;;;;;;;;;;;25.90;44.00;;;;;;5072908;28;19952;-36
2023/06/12 08:55:22;;;;;;;;;;;26.00;43.90;;;;;;5072975;28;19912;-35
2023/06/12 08:57:47;;;;;;;;;;;26.10;43.50;;;;;;5073047;28;20132;-36
2023/06/12 09:00:13;;;;;;;;;;;26.10;43.30;;;;;;5072564;28;19959;-35
2023/06/12 09:03:06;;;;;;;;;;;26.20;43.30;;;;;;5072691;28;20003;-35
2023/06/12 09:05:37;;;;;;;;;;;26.20;43.20;;;;;;5068822;28;19931;-36
2023/06/12 09:08:04;;;;;;;;;;;26.30;43.10;;;;;;5072598;28;19909;-35
2023/06/12 09:10:30;;;;;;;;;;;26.40;42.60;;;;;;5072828;28;19940;-35
2023/06/12 09:12:56;;;;;;;;;;;26.40;42.80;;;;;;5072826;28;19909;-36
2023/06/12 09:15:22;;;;;;;;;;;26.40;42.70;;;;;;5072428;28;19944;-35
2023/06/12 09:17:48;;;;;;;;;;;26.50;42.60;;;;;;5072686;28;20450;-34
2023/06/12 09:20:22;;;;;;;;;;;26.50;42.50;;;;;;5072746;28;20275;-36
2023/06/12 09:22:51;;;;;;;;;;;26.60;42.60;;;;;;5072435;28;20011;-35
2023/06/12 09:25:18;;;;;;;;;;;26.70;42.60;;;;;;5072753;28;19931;-35
2023/06/12 09:27:44;;;;;;;;;;;26.80;42.50;;;;;;5072342;28;19951;-35
2023/06/12 09:30:10;;;;;;;;;;;26.90;42.40;;;;;;5072520;28;20394;-35
2023/06/12 09:32:35;;;;;;;;;;;27.00;42.20;;;;;;5072170;28;19909;-35
2023/06/12 09:35:01;;;;;;;;;;;27.10;42.00;;;;;;5072194;28;20418;-35
2023/06/12 09:37:27;;;;;;;;;;;27.20;41.90;;;;;;5072173;28;19909;-36
2023/06/12 09:40:08;;;;;;;;;;;27.40;41.80;;;;;;5072093;28;19908;-35
2023/06/12 09:42:40;;;;;;;;;;;27.40;41.60;;;;;;5072232;28;19920;-35
2023/06/12 09:45:10;;;;;;;;;;;27.40;41.40;;;;;;5072091;28;20003;-37
2023/06/12 09:47:39;;;;;;;;;;;27.50;41.30;;;;;;5071419;28;19916;-35
2023/06/12 09:50:05;;;;;;;;;;;27.60;41.20;;;;;;5072333;28;19909;-36
2023/06/12 09:52:30;;;;;;;;;;;27.70;41.10;;;;;;5072271;28;20396;-34
2023/06/12 09:54:56;;;;;;;;;;;27.70;40.80;;;;;;5071897;28;19909;-36
2023/06/12 09:57:22;;;;;;;;;;;27.80;40.30;;;;;;5072063;28;19943;-36
2023/06/12 09:59:48;;;;;;;;;;;27.80;40.10;;;;;;5072263;28;19908;-37
2023/06/12 10:02:14;;;;;;;;;;;27.80;36.50;;;;;;5075664;28;20381;-36
2023/06/12 10:04:47;;;;;;;;;;;27.80;38.20;;;;;;5075877;28;19982;-36
2023/06/12 10:07:18;;;;;;;;;;;27.90;37.90;;;;;;5076028;28;19909;-35
2023/06/12 10:09:43;;;;;;;;;;;27.90;37.30;;;;;;5074413;28;19913;-34
2023/06/12 10:12:10;;;;;;;;;;;27.90;37.10;;;;;;5076014;28;19958;-36
2023/06/12 10:14:37;;;;;;;;;;;28.00;37.20;;;;;;5075727;28;19908;-40
2023/06/12 10:17:03;;;;;;;;;;;28.00;35.20;;;;;;5075853;28;20381;-35
2023/06/12 10:19:30;;;;;;;;;;;28.00;35.70;;;;;;5075518;28;20378;-35
2023/06/12 10:21:56;;;;;;;;;;;28.00;35.50;;;;;;5075345;28;19909;-36
2023/06/12 10:24:22;;;;;;;;;;;28.00;35.90;;;;;;5075414;28;19916;-35
2023/06/12 10:26:49;;;;;;;;;;;28.10;36.10;;;;;;5075948;28;19995;-37
2023/06/12 10:29:27;;;;;;;;;;;28.10;36.30;;;;;;5075528;28;20326;-34
2023/06/12 10:31:53;;;;;;;;;;;28.20;36.20;;;;;;5075434;28;19908;-33
2023/06/12 10:34:20;;;;;;;;;;;28.30;36.20;;;;;;5075424;28;20398;-35
2023/06/12 10:36:47;;;;;;;;;;;28.30;36.10;;;;;;5075526;28;19908;-35
2023/06/12 10:39:14;;;;;;;;;;;28.30;36.00;;;;;;5075364;28;20015;-35
2023/06/12 10:41:50;;;;;;;;;;;28.40;35.80;;;;;;5075496;28;19999;-33
2023/06/12 10:44:34;;;;;;;;;;;28.40;35.90;;;;;;5074868;28;19920;-36
2023/06/12 10:47:00;;;;;;;;;;;28.50;35.60;;;;;;5075125;28;19915;-35
2023/06/12 10:49:26;;;;;;;;;;;28.50;35.90;;;;;;5073770;28;19958;-36
2023/06/12 10:51:51;;;;;;;;;;;28.50;36.00;;;;;;5074940;28;19913;-36
2023/06/12 10:54:23;;;;;;;;;;;28.70;36.10;;;;;;5075053;28;19909;-37
2023/06/12 10:56:56;;;;;;;;;;;28.80;36.00;;;;;;5075077;28;19908;-34
2023/06/12 10:59:28;;;;;;;;;;;28.80;36.10;;;;;;5074871;28;19919;-34
2023/06/12 11:01:53;;;;;;;;;;;28.90;35.90;;;;;;5074531;28;19948;-34
2023/06/12 11:04:19;;;;;;;;;;;29.00;36.00;;;;;;5074379;28;19963;-34
2023/06/12 11:06:47;;;;;;;;;;;29.00;35.80;;;;;;5074697;28;19913;-34
2023/06/12 11:09:12;;;;;;;;;;;29.00;36.10;;;;;;5074822;28;20312;-35
2023/06/12 11:11:40;;;;;;;;;;;29.10;36.30;;;;;;5072950;28;19999;-35
2023/06/12 11:14:05;;;;;;;;;;;29.10;36.30;;;;;;5074205;28;20003;-36
2023/06/12 11:16:39;;;;;;;;;;;29.10;36.50;;;;;;5074314;28;20051;-35
2023/06/12 11:19:06;;;;;;;;;;;29.20;36.60;;;;;;5072976;28;19908;-35
2023/06/12 11:21:32;;;;;;;;;;;29.30;36.70;;;;;;5074269;28;19913;-34
2023/06/12 11:24:03;;;;;;;;;;;29.30;36.80;;;;;;5074522;28;19995;-35
2023/06/12 11:26:31;;;;;;;;;;;29.50;37.00;;;;;;5074609;28;19914;-35
2023/06/12 11:29:11;;;;;;;;;;;29.60;37.10;;;;;;5074558;28;19908;-36
2023/06/12 11:31:37;;;;;;;;;;;29.70;37.20;;;;;;5074215;28;19908;-32
2023/06/12 11:34:04;;;;;;;;;;;29.80;37.20;;;;;;5074414;28;19908;-33
2023/06/12 11:36:29;;;;;;;;;;;29.90;37.20;;;;;;5074510;28;19919;-38
2023/06/12 11:38:55;;;;;;;;;;;30.10;37.30;;;;;;5074162;28;19909;-35
2023/06/12 11:41:20;;;;;;;;;;;30.10;37.30;;;;;;5074042;28;19909;-35
2023/06/12 11:43:46;;;;;;;;;;;30.10;37.30;;;;;;5074197;28;20006;-34
2023/06/12 11:46:11;;;;;;;;;;;30.20;37.40;;;;;;5074259;28;19927;-29
2023/06/12 11:48:37;;;;;;;;;;;30.30;37.40;;;;;;5074239;28;19969;-32
2023/06/12 11:51:03;;;;;;;;;;;30.30;37.40;;;;;;5073822;28;19908;-36
2023/06/12 11:53:30;;;;;;;;;;;30.40;37.40;;;;;;5073819;28;20003;-34
2023/06/12 11:56:00;;;;;;;;;;;30.50;37.50;;;;;;5073757;28;19991;-34
2023/06/12 11:58:32;;;;;;;;;;;30.50;37.40;;;;;;5073697;28;19916;-34
2023/06/12 12:01:08;;;;;;;;;;;30.60;37.50;;;;;;5073911;28;19908;-34
2023/06/12 12:03:35;;;;;;;;;;;30.60;37.60;;;;;;5073299;28;19912;-34
2023/06/12 12:06:00;;;;;;;;;;;30.70;37.60;;;;;;5073543;28;19920;-33
2023/06/12 12:08:26;;;;;;;;;;;30.70;37.40;;;;;;5073517;28;20291;-29
2023/06/12 12:10:51;;;;;;;;;;;30.80;37.40;;;;;;5073423;28;19920;-34
2023/06/12 12:13:17;;;;;;;;;;;30.90;37.40;;;;;;5073590;28;19999;-31
2023/06/12 12:15:42;;;;;;;;;;;30.90;37.40;;;;;;5073621;28;20368;-30
2023/06/12 12:18:14;;;;;;;;;;;30.90;37.50;;;;;;5072157;28;19920;-33
2023/06/12 12:20:40;;;;;;;;;;;31.00;37.50;;;;;;5073223;28;19909;-30
2023/06/12 12:23:12;;;;;;;;;;;31.10;37.30;;;;;;5072981;28;19919;-44
2023/06/12 12:25:38;;;;;;;;;;;31.20;36.90;;;;;;5073516;28;20341;-45
2023/06/12 12:28:03;;;;;;;;;;;31.20;36.70;;;;;;5072990;28;19912;-35
2023/06/12 12:30:30;;;;;;;;;;;31.30;36.70;;;;;;5073200;28;19909;-36
2023/06/12 12:32:56;;;;;;;;;;;31.30;36.40;;;;;;5073070;28;19908;-35
2023/06/12 12:35:22;;;;;;;;;;;31.40;36.50;;;;;;5072669;28;19995;-34
2023/06/12 12:37:49;;;;;;;;;;;31.50;36.50;;;;;;5073200;28;19909;-36
2023/06/12 12:40:15;;;;;;;;;;;31.60;36.50;;;;;;5073420;28;19909;-36
2023/06/12 12:42:44;;;;;;;;;;;31.70;36.50;;;;;;5072472;28;19920;-36
2023/06/12 12:45:10;;;;;;;;;;;31.90;36.60;;;;;;5072848;28;20368;-37
2023/06/12 12:47:36;;;;;;;;;;;32.00;36.50;;;;;;5072824;28;19909;-37
2023/06/12 12:50:03;;;;;;;;;;;31.80;39.30;;;;;;5073023;28;19912;-36
2023/06/12 12:52:29;;;;;;;;;;;30.50;40.60;;;;;;5072526;28;19927;-37
2023/06/12 12:54:55;;;;;;;;;;;29.50;42.20;;;;;;5071402;28;19919;-35
2023/06/12 12:57:20;;;;;;;;;;;28.80;43.70;;;;;;5072634;28;19908;-36
2023/06/12 12:59:46;;;;;;;;;;;28.60;44.40;;;;;;5072806;28;20306;-37
2023/06/12 13:02:11;;;;;;;;;;;28.60;45.00;;;;;;5072449;28;19954;-36
2023/06/12 13:04:37;;;;;;;;;;;28.70;44.60;;;;;;5072292;28;19981;-37
2023/06/12 13:07:03;;;;;;;;;;;28.90;44.40;;;;;;5072428;28;19912;-35
2023/06/12 13:09:29;;;;;;;;;;;29.20;43.80;;;;;;5072459;28;19908;-32
2023/06/12 13:11:56;;;;;;;;;;;29.30;43.40;;;;;;5072411;28;19909;-32
2023/06/12 13:14:21;;;;;;;;;;;29.30;43.20;;;;;;5072084;28;20011;-29
2023/06/12 13:16:47;;;;;;;;;;;29.40;43.10;;;;;;5072178;28;19944;-28
2023/06/12 13:19:13;;;;;;;;;;;29.40;42.80;;;;;;5072141;28;19908;-33
2023/06/12 13:21:39;;;;;;;;;;;29.40;42.50;;;;;;5072092;28;20022;-31
2023/06/12 13:24:05;;;;;;;;;;;29.40;42.00;;;;;;5071825;28;19920;-30
2023/06/12 13:26:31;;;;;;;;;;;29.40;42.20;;;;;;5072242;28;19938;-33
2023/06/12 13:28:57;;;;;;;;;;;29.40;42.10;;;;;;5072102;28;20301;-29
2023/06/12 13:31:22;;;;;;;;;;;29.50;42.10;;;;;;5072323;28;19916;-36
2023/06/12 13:33:48;;;;;;;;;;;29.80;42.00;;;;;;5072292;28;19947;-34
2023/06/12 13:36:13;;;;;;;;;;;30.10;41.60;;;;;;5071553;28;19909;-31
2023/06/12 13:38:40;;;;;;;;;;;30.30;41.30;;;;;;5072292;28;20394;-32
2023/06/12 13:41:06;;;;;;;;;;;30.60;41.10;;;;;;5070608;28;19914;-35
2023/06/12 13:43:31;;;;;;;;;;;30.70;40.70;;;;;;5071947;28;19916;-35
2023/06/12 13:45:58;;;;;;;;;;;30.90;40.20;;;;;;5072107;28;19908;-34
2023/06/12 13:48:25;;;;;;;;;;;31.00;40.10;;;;;;5072246;28;20007;-32
2023/06/12 13:50:50;;;;;;;;;;;31.10;39.90;;;;;;5072294;28;20375;-31
2023/06/12 13:53:16;;;;;;;;;;;31.20;39.80;;;;;;5071896;28;20047;-30
2023/06/12 13:55:41;;;;;;;;;;;31.40;39.50;;;;;;5071902;28;19912;-31
2023/06/12 13:58:07;;;;;;;;;;;31.60;39.30;;;;;;5071796;28;19913;-30
2023/06/12 14:00:32;;;;;;;;;;;31.70;39.10;;;;;;5072157;28;20038;-32
2023/06/12 14:02:59;;;;;;;;;;;31.90;38.90;;;;;;5070419;28;20296;-31
2023/06/12 14:05:25;;;;;;;;;;;32.20;38.70;;;;;;5071709;28;19948;-31
2023/06/12 14:07:50;;;;;;;;;;;32.40;38.50;;;;;;5071718;28;20344;-33
2023/06/12 14:10:16;;;;;;;;;;;32.70;38.40;;;;;;5071662;28;19908;-32
2023/06/12 14:12:41;;;;;;;;;;;32.90;38.20;;;;;;5071971;28;19912;-32